Airfield :







YOU CAN JOIN US ON...

 
LOGIN :

Register | Disclaimer

   EN    FR    IT 

 









Legend :    VFR   Marginal VFR   IFR   Intensive IFR   Very Intensive IFR
Visi :
Ceiling :
>= 8 km
>= 3000ft
5 to 8 km
1000 to 3000 ft
1500m to 5 km
500 to 1000 ft
800 to 1500m
200 to 500 ft
< 800m
< 200 ft
Symbols :   Thunderstorms  Fog  Heavy snow  Heavy precipitations  Wind > 20 kt






- Airport Elevation : 215 ft
- IATA code : MSS


KMSS - Massena International Richards Field

CURRENT METAR :
  • 301453Z AUTO 24006KT 10SM -RA SCT055 OVC070 12/10 A2953 RMK AO2 RAB24 SLP001 P0001 60002 T01170100 53018

EXPIRED METARs :
  • 301353Z AUTO 25005KT 10SM FEW030 BKN048 OVC055 12/09 A2951 RMK AO2 SLP993 T01170094
  • 301335Z AUTO 27010KT 10SM FEW011 BKN030 OVC038 12/10 A2950 RMK AO2 T01170100
  • 301327Z AUTO 27010KT 10SM SCT011 BKN026 OVC038 12/11 A2950 RMK AO2 T01220106
  • 301312Z AUTO 27011G15KT 10SM BKN010 BKN020 OVC024 12/11 A2949 RMK AO2 CIG 008V015 T01220106
  • 301257Z AUTO 27007KT 10SM BKN009 OVC014 12/11 A2948 RMK AO2 T01220106
  • 301239Z AUTO 27008KT 10SM FEW009 BKN014 OVC060 12/11 A2947 RMK AO2 RAE25 P0001 T01220106

TAF KMSS
Valid from the 30 at 12:00 until the 01 at 12:00 UTC


301134Z 3012/0112 25008KT P6SM -RA SCT010 OVC040
TEMPO 3012/3014 4SM -RA BR BKN010
FM301400 25008KT P6SM VCSH OVC040
FM301800 22010G20KT P6SM VCSH BKN040
FM010400 22008KT P6SM VCSH BKN040 WS020/23035KT
KZBW FIR / North America



MET'MAP, your aeronautical weather chart ! - Copyright ORBIFLY December 2007 - Disclaimer

ORBIFLY MET'MAP TEAM :

Programming & Development : Alexandra Zaïnal
Concept & original design : Baudouin d'Aumeries
Assistance for programming : Marc-Olivier Méhu
Technical & hardware support : Manuel Goepfert

Contact : metmap@orbifly.com




SOURCES & CREDITS :

   NOAA